Time;durP1;ratioP1;P1;durP2;ratioP2;P2;SDS_P1;SDS_P2;PMS_P1;PMS_P2;Temp;Humidity;BMP_temperature;BMP_pressure;BME280_temperature;BME280_humidity;BME280_pressure;Samples;Min_cycle;Max_cycle;Signal;HPM_P1;HPM_P2
2022/04/23 00:01:17;;;;;;;2.15;0.95;;;;;;;0.74;88.56;98569.22;5058293;28;20091;-55
2022/04/23 00:03:48;;;;;;;2.28;0.90;;;;;;;0.80;88.72;98572.63;5058128;28;20056;-54
2022/04/23 00:06:19;;;;;;;1.95;0.90;;;;;;;0.76;88.03;98578.63;5056244;28;20049;-55
2022/04/23 00:08:49;;;;;;;1.00;0.80;;;;;;;0.77;88.10;98585.47;5051997;28;20080;-55
2022/04/23 00:11:20;;;;;;;0.93;0.80;;;;;;;0.63;88.42;98571.84;5051729;28;20059;-55
2022/04/23 00:13:51;;;;;;;2.05;1.08;;;;;;;0.70;88.76;98586.38;5051094;28;20053;-55
2022/04/23 00:16:23;;;;;;;3.78;0.80;;;;;;;0.71;88.77;98595.78;5053286;28;20099;-55
2022/04/23 00:18:54;;;;;;;3.25;0.90;;;;;;;0.76;89.06;98588.06;5058368;28;20072;-55
2022/04/23 00:21:25;;;;;;;2.88;1.10;;;;;;;0.85;88.97;98599.19;5055769;28;20048;-56
2022/04/23 00:23:55;;;;;;;1.90;0.90;;;;;;;0.86;88.82;98597.44;5053540;28;20052;-56
2022/04/23 00:26:26;;;;;;;4.82;1.08;;;;;;;0.86;88.26;98606.00;5051265;28;20080;-57
2022/04/23 00:28:57;;;;;;;1.40;0.80;;;;;;;0.84;88.18;98607.72;5050625;28;20330;-57
2022/04/23 00:31:29;;;;;;;1.60;1.00;;;;;;;0.81;88.48;98618.03;5051928;28;20073;-56
2022/04/23 00:34:00;;;;;;;2.88;1.30;;;;;;;0.82;88.67;98619.75;5053902;28;20263;-54
2022/04/23 00:36:31;;;;;;;3.83;1.33;;;;;;;0.79;88.55;98624.03;5057569;28;20056;-53
2022/04/23 00:39:01;;;;;;;5.50;1.70;;;;;;;0.84;87.98;98638.59;5056914;28;20343;-54
2022/04/23 00:41:47;;;;;;;2.58;1.40;;;;;;;0.82;88.15;98645.47;5057082;28;20053;-54
2022/04/23 00:44:18;;;;;;;2.55;1.45;;;;;;;0.88;88.41;98639.44;5057243;28;20465;-54
2022/04/23 00:46:50;;;;;;;2.90;1.58;;;;;;;0.97;87.66;98648.84;5057230;28;20071;-55
2022/04/23 00:49:20;;;;;;;1.83;1.08;;;;;;;1.00;87.64;98656.53;5055433;28;20064;-54
2022/04/23 00:51:52;;;;;;;3.35;0.90;;;;;;;1.03;87.51;98661.69;5057195;28;20065;-55
2022/04/23 00:54:23;;;;;;;0.90;0.77;;;;;;;1.07;87.83;98664.25;5057623;28;20063;-53
2022/04/23 00:56:54;;;;;;;1.05;0.80;;;;;;;0.98;87.53;98655.72;5057640;28;20057;-53
2022/04/23 00:59:25;;;;;;;0.73;0.73;;;;;;;0.97;86.57;98666.84;5057441;28;20049;-53
2022/04/23 01:01:57;;;;;;;1.33;1.02;;;;;;;1.00;87.24;98679.69;5057627;28;20339;-53
2022/04/23 01:04:28;;;;;;;0.70;0.70;;;;;;;0.97;87.33;98677.13;5057118;28;20060;-54
2022/04/23 01:06:59;;;;;;;0.60;0.60;;;;;;;0.97;87.56;98679.69;5056888;28;20106;-52
2022/04/23 01:09:30;;;;;;;0.98;0.80;;;;;;;0.99;87.33;98688.25;5050829;28;20298;-53
2022/04/23 01:12:01;;;;;;;3.53;0.90;;;;;;;1.00;87.64;98696.00;5053824;28;20044;-54
2022/04/23 01:14:32;;;;;;;2.15;0.90;;;;;;;1.02;87.40;98693.41;5053484;28;20056;-55
2022/04/23 01:17:05;;;;;;;0.82;0.70;;;;;;;1.04;87.45;98696.81;5053038;28;20240;-54
2022/04/23 01:19:36;;;;;;;0.70;0.70;;;;;;;1.08;87.81;98693.38;5053350;28;20041;-53
2022/04/23 01:22:12;;;;;;;1.00;0.90;;;;;;;1.08;87.35;98703.69;5053210;28;20136;-54
2022/04/23 01:24:42;;;;;;;1.65;0.70;;;;;;;1.04;87.48;98717.41;5053171;28;20060;-54
2022/04/23 01:27:13;;;;;;;1.92;0.73;;;;;;;1.06;87.36;98705.41;5053131;28;20098;-53
2022/04/23 01:29:44;;;;;;;2.28;0.82;;;;;;;1.13;87.64;98711.38;5053067;28;20118;-54
2022/04/23 01:32:15;;;;;;;0.77;0.77;;;;;;;1.19;87.72;98707.06;5053164;28;20068;-53
2022/04/23 01:34:45;;;;;;;1.20;0.75;;;;;;;1.37;87.80;98710.41;5053245;28;20071;-54
2022/04/23 01:37:18;;;;;;;0.70;0.70;;;;;;;1.42;87.12;98709.56;5052895;28;20340;-53
2022/04/23 01:39:50;;;;;;;1.58;0.60;;;;;;;1.49;86.91;98715.50;5052935;28;20427;-54
2022/04/23 01:42:20;;;;;;;1.58;0.60;;;;;;;1.51;86.96;98716.38;5052379;28;20290;-53
2022/04/23 01:44:52;;;;;;;0.50;0.50;;;;;;;1.45;86.37;98719.00;5052794;28;20052;-54
2022/04/23 01:47:23;;;;;;;2.47;0.50;;;;;;;1.44;86.75;98717.25;5053039;28;20056;-55
2022/04/23 01:49:54;;;;;;;0.60;0.60;;;;;;;1.48;86.83;98718.97;5055971;28;20414;-55
2022/04/23 01:52:26;;;;;;;0.50;0.50;;;;;;;1.50;86.93;98717.25;5057309;28;20061;-54
2022/04/23 01:54:57;;;;;;;0.50;0.50;;;;;;;1.56;87.05;98714.63;5056684;28;20049;-54
2022/04/23 01:57:27;;;;;;;0.50;0.50;;;;;;;1.63;86.93;98718.88;5057276;28;20055;-55
2022/04/23 01:59:58;;;;;;;0.57;0.50;;;;;;;1.54;86.19;98724.06;5057241;28;20116;-53
2022/04/23 02:02:29;;;;;;;2.58;1.65;;;;;;;1.51;86.87;98721.50;5055914;28;20099;-54
2022/04/23 02:05:00;;;;;;;1.60;1.20;;;;;;;1.59;87.06;98719.75;5056786;28;20112;-54
2022/04/23 02:07:32;;;;;;;1.45;0.80;;;;;;;1.59;86.64;98727.47;5056661;28;20131;-54
2022/04/23 02:10:03;;;;;;;0.73;0.70;;;;;;;1.51;86.48;98729.25;5055784;28;20155;-55
2022/04/23 02:12:34;;;;;;;1.42;0.57;;;;;;;1.64;86.86;98736.03;5056331;28;20056;-54
2022/04/23 02:15:07;;;;;;;0.50;0.50;;;;;;;1.63;86.50;98736.91;5055458;28;20061;-52
2022/04/23 02:17:39;;;;;;;0.60;0.60;;;;;;;1.76;86.58;98744.56;5056105;28;20061;-55
2022/04/23 02:20:12;;;;;;;0.60;0.60;;;;;;;1.72;85.85;98742.03;5056087;28;20060;-56
2022/04/23 02:22:45;;;;;;;0.82;0.70;;;;;;;1.61;85.83;98725.75;5056027;28;20099;-53
2022/04/23 02:25:16;;;;;;;1.20;1.10;;;;;;;1.88;86.25;98749.66;5055254;28;20053;-55
2022/04/23 02:27:48;;;;;;;0.70;0.70;;;;;;;1.72;86.00;98703.41;5055939;28;20053;-54
2022/04/23 02:30:20;;;;;;;0.75;0.75;;;;;;;2.03;85.61;98738.41;5055709;28;20052;-55
2022/04/23 02:32:51;;;;;;;0.90;0.80;;;;;;;1.88;84.66;98740.22;5056020;28;20116;-54
2022/04/23 02:35:22;;;;;;;3.45;1.58;;;;;;;2.01;85.69;98758.16;5056052;28;20134;-54
2022/04/23 02:37:56;;;;;;;0.60;0.60;;;;;;;1.99;85.67;98753.00;5055951;28;20051;-54
2022/04/23 02:40:27;;;;;;;1.55;0.95;;;;;;;2.17;86.01;98772.66;5056059;28;20120;-54
2022/04/23 02:42:57;;;;;;;0.60;0.60;;;;;;;1.89;84.87;98726.44;5055801;28;20056;-53
2022/04/23 02:45:28;;;;;;;11.55;6.70;;;;;;;2.10;84.69;98777.00;5056207;28;20116;-54
2022/04/23 02:47:59;;;;;;;4.43;2.83;;;;;;;2.04;84.54;98777.03;5055928;28;20116;-55
2022/04/23 02:50:31;;;;;;;1.63;1.13;;;;;;;2.11;85.00;98789.00;5056011;28;20335;-54
2022/04/23 02:53:04;;;;;;;4.43;2.40;;;;;;;2.03;85.05;98790.78;5055650;28;20053;-54
2022/04/23 02:55:36;;;;;;;1.75;0.90;;;;;;;1.91;85.21;98780.53;5055680;28;20053;-55
2022/04/23 02:58:09;;;;;;;0.63;0.63;;;;;;;2.00;84.78;98795.97;5055516;28;20055;-54
2022/04/23 03:00:40;;;;;;;0.60;0.60;;;;;;;2.09;85.29;98801.03;5054557;28;20114;-54
2022/04/23 03:03:12;;;;;;;0.88;0.70;;;;;;;2.21;85.72;98807.00;5055434;28;20340;-55
2022/04/23 03:05:43;;;;;;;0.70;0.70;;;;;;;2.40;85.72;98821.50;5052712;28;20114;-56
2022/04/23 03:08:16;;;;;;;0.63;0.60;;;;;;;2.33;84.99;98804.34;5055114;28;20080;-55
2022/04/23 03:10:47;;;;;;;0.60;0.60;;;;;;;2.51;85.25;98835.16;5055474;28;20350;-54
2022/04/23 03:13:18;;;;;;;1.02;0.60;;;;;;;2.48;84.73;98832.59;5055597;28;20279;-55
2022/04/23 03:15:48;;;;;;;1.65;0.82;;;;;;;2.49;84.47;98847.19;5055081;28;20041;-54
2022/04/23 03:18:19;;;;;;;0.88;0.70;;;;;;;2.40;84.41;98852.44;5054639;28;20053;-55
2022/04/23 03:20:50;;;;;;;0.93;0.70;;;;;;;2.36;84.48;98856.72;5055767;28;20067;-55
2022/04/23 03:23:22;;;;;;;2.65;0.70;;;;;;;2.27;84.59;98861.06;5055344;28;20060;-54
2022/04/23 03:25:53;;;;;;;1.38;0.60;;;;;;;2.24;84.47;98871.41;5055314;28;20512;-54
2022/04/23 03:28:24;;;;;;;0.68;0.57;;;;;;;2.29;85.30;98869.66;5054432;28;20052;-55
2022/04/23 03:30:54;;;;;;;0.60;0.60;;;;;;;2.39;85.25;98881.63;5054847;28;20075;-53
2022/04/23 03:33:25;;;;;;;0.70;0.60;;;;;;;2.43;85.11;98903.97;5053531;28;20040;-54
2022/04/23 03:35:56;;;;;;;0.50;0.50;;;;;;;2.49;85.54;98903.91;5053376;28;20052;-54
2022/04/23 03:38:28;;;;;;;0.60;0.60;;;;;;;2.45;85.41;98907.41;5054337;28;20091;-54
2022/04/23 03:40:59;;;;;;;1.38;1.10;;;;;;;2.36;84.75;98922.91;5054565;28;20091;-52
2022/04/23 03:43:31;;;;;;;0.57;0.57;;;;;;;2.18;84.64;98933.31;5054258;28;20354;-54
2022/04/23 03:46:02;;;;;;;0.40;0.40;;;;;;;1.73;84.47;98905.94;5054232;28;20068;-54
2022/04/23 03:48:33;;;;;;;0.60;0.60;;;;;;;1.88;85.27;98940.25;5054548;28;20065;-53
2022/04/23 03:51:03;;;;;;;1.02;0.90;;;;;;;1.88;85.24;98929.97;5054320;28;20099;-52
2022/04/23 03:53:36;;;;;;;1.25;1.00;;;;;;;2.03;85.86;98950.53;5054505;28;20077;-54
2022/04/23 03:56:08;;;;;;;2.75;0.60;;;;;;;2.09;84.99;98950.47;5053681;28;20039;-55
2022/04/23 03:58:39;;;;;;;0.50;0.50;;;;;;;2.02;84.77;98974.59;5054234;28;20053;-54
2022/04/23 04:01:10;;;;;;;0.77;0.45;;;;;;;2.04;84.78;98987.44;5054008;28;20063;-52
2022/04/23 04:03:40;;;;;;;3.55;0.50;;;;;;;2.08;84.82;98984.00;5054095;28;20052;-52
2022/04/23 04:06:11;;;;;;;2.13;1.75;;;;;;;2.22;85.34;98989.09;5054196;28;20037;-52
2022/04/23 04:08:44;;;;;;;0.50;0.50;;;;;;;2.29;83.92;98993.38;5053892;28;20867;-54
2022/04/23 04:11:14;;;;;;;0.57;0.57;;;;;;;2.23;84.07;98994.28;5052956;28;20053;-54
2022/04/23 04:13:45;;;;;;;0.50;0.50;;;;;;;2.30;84.20;99000.28;5052761;28;20083;-55
2022/04/23 04:16:16;;;;;;;0.80;0.50;;;;;;;2.40;84.44;98996.78;5052973;28;20125;-54
2022/04/23 04:18:48;;;;;;;0.88;0.50;;;;;;;2.47;82.93;99001.06;5052367;28;20064;-54
2022/04/23 04:21:19;;;;;;;0.50;0.50;;;;;;;2.47;81.66;99003.66;5054220;28;20108;-53
2022/04/23 04:23:52;;;;;;;0.50;0.50;;;;;;;2.56;82.10;99023.38;5054250;28;20056;-54
2022/04/23 04:26:23;;;;;;;0.50;0.50;;;;;;;2.68;82.31;99025.03;5054186;28;20331;-55
2022/04/23 04:28:53;;;;;;;0.50;0.50;;;;;;;2.73;81.58;99033.63;5054291;28;20335;-54
2022/04/23 04:34:11;;;;;;;0.50;0.50;;;;;;;2.81;80.04;99042.16;5054134;28;20068;-53
2022/04/23 04:36:42;;;;;;;0.50;0.50;;;;;;;2.80;79.80;99045.63;5053469;28;20049;-55
2022/04/23 04:39:15;;;;;;;0.90;0.60;;;;;;;2.80;79.08;99054.22;5052680;28;20064;-55
2022/04/23 04:41:46;;;;;;;0.50;0.50;;;;;;;2.78;80.30;99060.25;5053397;28;20088;-55
2022/04/23 04:44:17;;;;;;;0.50;0.50;;;;;;;2.68;78.71;99069.75;5053467;28;20052;-54
2022/04/23 04:46:48;;;;;;;0.40;0.40;;;;;;;2.74;79.93;99058.53;5053722;28;20358;-55
2022/04/23 04:49:18;;;;;;;0.65;0.50;;;;;;;2.75;78.40;99055.97;5053914;28;20045;-56
2022/04/23 04:51:49;;;;;;;0.43;0.43;;;;;;;2.71;79.10;99079.19;5053867;28;20319;-55
2022/04/23 04:54:21;;;;;;;0.50;0.50;;;;;;;2.73;79.67;99082.63;5052967;28;20051;-54
2022/04/23 04:56:53;;;;;;;0.50;0.50;;;;;;;2.85;80.80;99076.56;5052774;28;20049;-56
2022/04/23 04:59:23;;;;;;;0.47;0.47;;;;;;;2.93;79.46;99085.97;5053039;28;20735;-54
2022/04/23 05:01:55;;;;;;;0.50;0.50;;;;;;;2.91;78.04;99077.38;5053320;28;20060;-55
2022/04/23 05:04:25;;;;;;;0.50;0.50;;;;;;;2.99;77.76;99085.94;5052480;28;20067;-55
2022/04/23 05:06:56;;;;;;;0.63;0.63;;;;;;;3.00;77.33;99103.16;5053119;28;20064;-55
2022/04/23 05:09:28;;;;;;;0.50;0.50;;;;;;;2.92;75.33;99109.19;5052608;28;20108;-54
2022/04/23 05:11:59;;;;;;;0.50;0.50;;;;;;;2.85;75.88;99113.53;5053677;28;20091;-54
2022/04/23 05:14:30;;;;;;;0.50;0.50;;;;;;;2.80;73.63;99110.13;5053415;28;20053;-55
2022/04/23 05:17:00;;;;;;;0.88;0.60;;;;;;;2.83;75.35;99119.56;5053526;28;20479;-54
2022/04/23 05:19:31;;;;;;;0.60;0.60;;;;;;;2.83;73.86;99120.41;5053673;28;20084;-54
2022/04/23 05:22:02;;;;;;;0.50;0.50;;;;;;;2.87;73.66;99106.66;5053125;28;20057;-55
2022/04/23 05:24:34;;;;;;;0.80;0.80;;;;;;;2.84;72.81;99132.44;5053515;28;20580;-54
2022/04/23 05:27:05;;;;;;;0.70;0.60;;;;;;;2.78;72.39;99111.84;5053380;28;20053;-55
2022/04/23 05:29:36;;;;;;;1.23;0.70;;;;;;;2.79;72.82;99141.91;5053356;28;20052;-56
2022/04/23 05:32:07;;;;;;;2.20;0.70;;;;;;;2.81;73.41;99142.78;5053332;28;20055;-56
2022/04/23 05:34:38;;;;;;;2.17;1.15;;;;;;;2.78;71.98;99135.06;5052190;28;20053;-56
2022/04/23 05:37:10;;;;;;;1.85;1.35;;;;;;;2.72;70.31;99132.47;5053112;28;20057;-54
2022/04/23 05:39:42;;;;;;;2.78;0.80;;;;;;;2.69;71.41;99132.50;5053008;28;20067;-53
2022/04/23 05:42:13;;;;;;;1.42;0.95;;;;;;;2.66;71.06;99142.81;5053191;28;20099;-56
2022/04/23 05:44:43;;;;;;;0.80;0.80;;;;;;;2.65;70.94;99141.13;5053001;28;20342;-55
2022/04/23 05:47:14;;;;;;;1.20;0.90;;;;;;;2.55;71.29;99148.88;5053094;28;20048;-55
2022/04/23 05:49:45;;;;;;;2.33;1.20;;;;;;;2.52;71.15;99172.09;5053031;28;20053;-55
2022/04/23 05:52:21;;;;;;;6.32;1.20;;;;;;;2.52;70.65;99163.47;5052927;28;20049;-56
2022/04/23 05:54:53;;;;;;;3.17;1.50;;;;;;;2.54;72.29;99185.81;5053061;28;20061;-56
2022/04/23 05:57:24;;;;;;;1.17;1.00;;;;;;;2.51;71.27;99185.81;5052876;28;20088;-55
2022/04/23 05:59:56;;;;;;;1.95;0.95;;;;;;;2.43;70.46;99172.09;5053047;28;20056;-55
2022/04/23 06:02:27;;;;;;;1.52;1.15;;;;;;;2.41;70.57;99199.59;5052960;28;20060;-54
2022/04/23 06:04:57;;;;;;;1.60;0.90;;;;;;;2.38;70.50;99215.91;5052706;28;20052;-56
2022/04/23 06:07:28;;;;;;;2.70;1.00;;;;;;;2.42;71.23;99211.63;5052494;28;20098;-55
2022/04/23 06:10:00;;;;;;;3.15;1.10;;;;;;;2.40;71.24;99223.66;5052625;28;20288;-56
2022/04/23 06:12:31;;;;;;;2.42;1.27;;;;;;;2.41;72.11;99225.38;5053026;28;20102;-56
2022/04/23 06:15:02;;;;;;;3.25;1.00;;;;;;;2.37;70.77;99218.47;5052922;28;20056;-54
2022/04/23 06:17:33;;;;;;;3.28;1.50;;;;;;;2.50;71.72;99242.56;5053203;28;20063;-55
2022/04/23 06:20:05;;;;;;;6.63;1.10;;;;;;;2.51;71.21;99232.25;5052838;28;20053;-56
2022/04/23 06:22:36;;;;;;;3.20;1.65;;;;;;;2.58;71.98;99259.75;5050099;28;20112;-56
2022/04/23 06:25:09;;;;;;;2.28;1.60;;;;;;;2.50;72.13;99256.31;5052741;28;20123;-55
2022/04/23 06:27:40;;;;;;;4.20;1.52;;;;;;;2.67;73.08;99279.53;5052574;28;20053;-56
2022/04/23 06:30:11;;;;;;;5.00;1.92;;;;;;;2.76;72.72;99273.50;5051984;28;20095;-56
2022/04/23 06:32:42;;;;;;;5.10;1.85;;;;;;;2.78;71.58;99288.13;5051573;28;20151;-55
2022/04/23 06:35:13;;;;;;;3.33;1.38;;;;;;;2.80;71.43;99290.72;5051868;28;20049;-54
2022/04/23 06:37:44;;;;;;;3.58;1.30;;;;;;;2.73;70.92;99288.97;5056124;28;20049;-55
2022/04/23 06:40:16;;;;;;;1.98;1.02;;;;;;;2.79;70.47;99304.44;5055880;28;20091;-55
2022/04/23 06:42:47;;;;;;;3.95;1.50;;;;;;;2.82;71.65;99304.44;5055821;28;20080;-57
2022/04/23 06:45:19;;;;;;;8.88;1.50;;;;;;;2.93;71.29;99320.78;5055835;28;20542;-56
2022/04/23 06:47:58;;;;;;;4.10;1.35;;;;;;;2.94;70.67;99314.75;5055945;28;20061;-55
2022/04/23 06:50:29;;;;;;;5.13;1.23;;;;;;;3.02;70.01;99327.66;5054271;28;20064;-56
2022/04/23 06:53:01;;;;;;;6.07;1.45;;;;;;;3.07;69.44;99325.06;5054547;28;20052;-55
2022/04/23 06:55:33;;;;;;;6.93;2.10;;;;;;;3.14;69.70;99339.69;5054437;28;20370;-55
2022/04/23 06:58:04;;;;;;;5.13;1.50;;;;;;;2.97;68.44;99299.28;5053464;28;20259;-55
2022/04/23 07:00:40;;;;;;;5.70;1.23;;;;;;;3.31;69.12;99356.03;5055792;28;20056;-56
2022/04/23 07:03:11;;;;;;;7.65;1.63;;;;;;;3.30;67.55;99343.97;5055498;28;20056;-55
2022/04/23 07:05:41;;;;;;;3.20;1.35;;;;;;;3.40;68.87;99360.31;5055340;28;20102;-56
2022/04/23 07:08:12;;;;;;;7.18;2.88;;;;;;;3.41;66.99;99368.03;5055790;28;20053;-56
2022/04/23 07:10:45;;;;;;;4.63;1.25;;;;;;;3.44;67.78;99372.34;5055479;28;20139;-55
2022/04/23 07:13:16;;;;;;;6.10;1.52;;;;;;;3.57;67.85;99373.19;5055548;28;20057;-55
2022/04/23 07:15:46;;;;;;;5.22;1.98;;;;;;;3.56;65.95;99379.22;5055601;28;20106;-56
2022/04/23 07:18:17;;;;;;;2.97;1.20;;;;;;;3.55;65.26;99380.09;5055217;28;20049;-57
2022/04/23 07:20:48;;;;;;;3.38;1.27;;;;;;;3.59;65.62;99397.28;5055084;28;20351;-56
2022/04/23 07:26:08;;;;;;;4.18;1.42;;;;;;;3.33;64.98;99405.94;5029808;28;20205;-55
2022/04/23 07:28:39;;;;;;;2.30;1.13;;;;;;;3.34;65.75;99423.16;5055065;28;20098;-55
2022/04/23 07:31:09;;;;;;;3.17;1.20;;;;;;;3.27;64.83;99416.28;5055086;28;20335;-55
2022/04/23 07:39:15;;;;;;;9.48;1.35;;;;;;;3.34;64.93;99428.31;5053552;28;20049;-54
2022/04/23 07:41:47;;;;;;;4.32;1.30;;;;;;;3.27;64.89;99444.69;5054381;28;20045;-56
2022/04/23 07:44:18;;;;;;;5.32;1.60;;;;;;;3.27;65.26;99446.38;5054694;28;20367;-56
2022/04/23 07:46:48;;;;;;;5.35;1.35;;;;;;;3.25;64.11;99454.16;5054450;28;20061;-55
2022/04/23 07:49:19;;;;;;;6.13;2.47;;;;;;;3.03;64.95;99438.63;5054430;28;20068;-56
2022/04/23 07:51:50;;;;;;;5.25;1.60;;;;;;;3.12;64.33;99454.97;5053347;28;20049;-56
2022/04/23 07:54:21;;;;;;;3.70;1.23;;;;;;;3.16;64.93;99474.78;5053891;28;20155;-54
2022/04/23 07:56:53;;;;;;;8.75;1.60;;;;;;;3.11;64.08;99476.50;5054196;28;20053;-55
2022/04/23 07:59:24;;;;;;;3.38;1.05;;;;;;;2.87;63.20;99457.56;5054557;28;20061;-54
2022/04/23 08:01:56;;;;;;;3.85;1.35;;;;;;;3.06;64.48;99488.53;5054579;28;20067;-56
2022/04/23 08:04:27;;;;;;;3.40;1.42;;;;;;;3.06;64.67;99498.88;5054619;28;20310;-56
2022/04/23 08:06:57;;;;;;;9.15;1.70;;;;;;;3.06;64.73;99498.88;5054228;28;20060;-54
2022/04/23 08:09:28;;;;;;;7.20;1.73;;;;;;;3.11;64.78;99512.66;5053780;28;20060;-56
2022/04/23 08:12:00;;;;;;;3.45;1.25;;;;;;;3.22;63.30;99526.41;5054492;28;20106;-54
2022/04/23 08:14:31;;;;;;;2.95;1.00;;;;;;;3.37;63.03;99530.75;5054283;28;20071;-55
2022/04/23 08:17:01;;;;;;;4.40;1.42;;;;;;;3.45;63.15;99540.22;5054195;28;20049;-54
2022/04/23 08:19:32;;;;;;;4.07;1.35;;;;;;;3.54;62.53;99533.34;5053933;28;20140;-55
2022/04/23 08:22:03;;;;;;;3.97;1.20;;;;;;;3.58;62.11;99537.66;5054344;28;20099;-56
2022/04/23 08:24:34;;;;;;;2.47;1.10;;;;;;;3.66;61.58;99548.84;5054156;28;20053;-55
2022/04/23 08:27:06;;;;;;;1.38;0.85;;;;;;;3.69;59.20;99538.50;5053895;28;20597;-54
2022/04/23 08:32:24;;;;;;;6.38;1.42;;;;;;;3.64;61.19;99553.16;5053958;28;20051;-56
2022/04/23 08:34:55;;;;;;;4.88;1.40;;;;;;;3.42;60.76;99524.75;5053801;28;20060;-55
2022/04/23 08:37:25;;;;;;;4.18;1.30;;;;;;;3.62;60.98;99553.16;5053754;28;20049;-55
2022/04/23 08:39:56;;;;;;;3.15;1.20;;;;;;;3.62;59.93;99568.66;5053812;28;20048;-55
2022/04/23 08:42:29;;;;;;;3.97;1.50;;;;;;;3.61;60.91;99571.22;5053857;28;20335;-56
2022/04/23 08:44:59;;;;;;;4.45;2.33;;;;;;;3.56;60.13;99568.66;5053870;28;20060;-54
2022/04/23 08:47:32;;;;;;;2.65;1.35;;;;;;;3.58;60.11;99577.25;5053902;28;20110;-54
2022/04/23 08:50:06;;;;;;;3.95;1.30;;;;;;;3.55;60.69;99579.00;5053530;28;20048;-55
2022/04/23 08:52:37;;;;;;;5.07;1.25;;;;;;;3.57;60.17;99574.66;5054160;28;20240;-54
2022/04/23 08:55:08;;;;;;;4.38;1.40;;;;;;;3.59;60.37;99593.63;5053818;28;20432;-55
2022/04/23 08:57:43;;;;;;;4.65;1.40;;;;;;;3.52;60.53;99586.72;5053933;28;20065;-54
2022/04/23 09:00:17;;;;;;;2.10;1.15;;;;;;;3.44;60.38;99584.13;5053406;28;20079;-55
2022/04/23 09:02:48;;;;;;;3.08;1.40;;;;;;;3.32;59.62;99579.81;5053433;28;20198;-54
2022/04/23 09:05:19;;;;;;;1.35;1.15;;;;;;;3.22;60.64;99585.78;5053407;28;20098;-56
2022/04/23 09:07:56;;;;;;;7.15;1.33;;;;;;;2.65;61.17;99528.00;5052746;28;20078;-54
2022/04/23 09:10:45;;;;;;;3.00;1.10;;;;;;;2.97;61.64;99603.81;5053030;28;21069;-54
2022/04/23 09:13:26;;;;;;;3.08;1.20;;;;;;;2.78;61.94;99604.59;5053100;28;20250;-54
2022/04/23 09:24:46;;;;;;;3.40;1.55;;;;;;;2.28;64.79;99636.97;5053490;28;20064;-54
2022/04/23 09:27:18;;;;;;;5.00;1.40;;;;;;;2.22;64.60;99641.19;5053152;28;20056;-55
2022/04/23 09:30:05;;;;;;;5.82;1.90;;;;;;;2.16;64.84;99630.00;5053024;28;20053;-54
2022/04/23 09:32:37;;;;;;;4.15;1.60;;;;;;;2.06;65.33;99646.25;5052272;28;20056;-54
2022/04/23 09:35:10;;;;;;;5.13;1.52;;;;;;;2.06;65.57;99646.25;5053038;28;20064;-56
2022/04/23 09:40:29;;;;;;;3.30;1.52;;;;;;;1.89;65.29;99652.97;5053139;28;20065;-54
2022/04/23 09:43:01;;;;;;;3.53;1.50;;;;;;;1.92;65.30;99673.59;5052879;28;20048;-54
2022/04/23 09:45:39;;;;;;;5.40;1.85;;;;;;;1.87;65.73;99670.13;5052750;28;20045;-55
2022/04/23 09:48:19;;;;;;;4.50;1.73;;;;;;;1.53;65.79;99633.75;5053218;28;20052;-51
2022/04/23 09:50:51;;;;;;;3.75;1.67;;;;;;;1.17;66.45;99593.88;5052915;28;20247;-55
2022/04/23 09:53:22;;;;;;;3.95;1.52;;;;;;;1.48;66.72;99661.16;5052870;28;20095;-53
2022/04/23 09:55:53;;;;;;;6.55;1.60;;;;;;;1.61;67.13;99699.06;5052796;28;20060;-53
2022/04/23 09:58:23;;;;;;;6.72;1.60;;;;;;;1.57;66.68;99697.28;5052753;28;20056;-54
2022/04/23 10:00:57;;;;;;;7.38;2.00;;;;;;;1.55;66.84;99708.41;5052109;28;20060;-54
2022/04/23 10:03:30;;;;;;;2.50;1.58;;;;;;;1.50;67.65;99696.38;5052471;28;20053;-53
2022/04/23 10:06:02;;;;;;;5.18;1.70;;;;;;;1.46;68.09;99704.03;5052486;28;20091;-56
2022/04/23 10:08:34;;;;;;;5.30;1.67;;;;;;;1.41;68.46;99711.72;5052835;28;20068;-54
2022/04/23 10:11:12;;;;;;;2.40;1.50;;;;;;;1.31;69.28;99699.56;5055936;28;20079;-53
2022/04/23 10:13:46;;;;;;;4.28;1.92;;;;;;;1.18;70.73;99711.44;5056751;28;20053;-54
2022/04/23 10:16:19;;;;;;;3.83;2.17;;;;;;;1.03;71.38;99698.38;5056540;28;20099;-54
2022/04/23 10:18:51;;;;;;;6.70;2.70;;;;;;;0.90;73.44;99696.47;5056481;28;20060;-53
2022/04/23 10:21:30;;;;;;;16.10;4.43;;;;;;;0.76;74.04;99709.16;5055998;28;20052;-53
2022/04/23 10:24:09;;;;;;;13.27;4.65;;;;;;;0.65;74.39;99711.56;5056038;28;20052;-54
2022/04/23 10:26:52;;;;;;;10.45;3.55;;;;;;;0.39;74.67;99681.19;5056616;28;20115;-54
2022/04/23 10:29:24;;;;;;;10.63;4.70;;;;;;;0.53;74.43;99706.25;5056318;28;20045;-53
2022/04/23 10:32:24;;;;;;;10.60;4.72;;;;;;;0.67;73.82;99724.44;5056319;28;20147;-53
2022/04/23 10:34:54;;;;;;;26.75;10.43;;;;;;;0.66;74.02;99733.88;5056502;28;20056;-53
2022/04/23 10:37:27;;;;;;;11.77;4.53;;;;;;;0.68;73.99;99746.75;5056545;28;20053;-54
2022/04/23 10:40:18;;;;;;;12.95;4.78;;;;;;;0.74;73.79;99757.97;5056212;28;20082;-53
2022/04/23 10:43:12;;;;;;;16.45;6.15;;;;;;;0.65;73.46;99747.56;5056143;28;20045;-54
2022/04/23 10:45:43;;;;;;;117.20;48.58;;;;;;;0.54;73.56;99751.66;5056502;28;20518;-54
2022/04/23 10:48:32;;;;;;;108.40;46.60;;;;;;;0.57;73.66;99777.41;5056292;28;20310;-53
2022/04/23 10:51:04;;;;;;;131.55;59.63;;;;;;;0.61;73.89;99784.34;5056249;28;20513;-54
2022/04/23 10:53:56;;;;;;;76.88;35.90;;;;;;;0.58;74.10;99792.03;5055902;28;20041;-54
2022/04/23 10:56:27;;;;;;;61.05;28.17;;;;;;;0.58;74.26;99804.88;5056063;28;20279;-55
2022/04/23 10:58:57;;;;;;;10.60;5.18;;;;;;;0.66;74.62;99807.56;5055944;28;20056;-54
2022/04/23 11:01:29;;;;;;;77.35;41.25;;;;;;;-0.04;74.54;99729.28;5054834;28;20053;-54
2022/04/23 11:04:11;;;;;;;43.50;21.88;;;;;;;0.37;75.26;99829.34;5054529;28;20060;-54
2022/04/23 11:12:55;;;;;;;20.20;9.98;;;;;;;-0.02;77.13;99835.50;5054895;28;20061;-54
2022/04/23 11:15:26;;;;;;;26.10;11.52;;;;;;;0.14;77.63;99856.34;5054462;28;20053;-55
2022/04/23 11:17:59;;;;;;;28.83;13.35;;;;;;;0.07;77.48;99859.63;5054701;28;20053;-54
2022/04/23 11:20:33;;;;;;;23.30;7.47;;;;;;;-0.03;77.89;99863.72;5054534;28;20248;-55
2022/04/23 11:23:05;;;;;;;9.32;4.13;;;;;;;-0.07;78.04;99862.81;5054353;28;20056;-54
2022/04/23 11:25:36;;;;;;;11.05;4.57;;;;;;;-0.12;78.54;99859.28;5054956;28;20057;-55
2022/04/23 11:28:18;;;;;;;8.32;3.50;;;;;;;-0.02;78.58;99871.47;5054450;28;20110;-56
2022/04/23 11:30:52;;;;;;;9.73;3.53;;;;;;;-0.03;78.36;99872.28;5054385;28;20123;-54
2022/04/23 11:33:22;;;;;;;8.45;3.60;;;;;;;-0.06;78.45;99874.78;5054255;28;20080;-57
2022/04/23 11:36:00;;;;;;;20.48;8.02;;;;;;;-0.16;78.65;99875.44;5054433;28;20064;-56
2022/04/23 11:38:31;;;;;;;24.27;10.35;;;;;;;-0.26;79.09;99876.09;5053889;28;20053;-55
2022/04/23 11:41:02;;;;;;;26.10;12.13;;;;;;;-0.30;79.26;99884.56;5052857;28;20070;-57
2022/04/23 11:43:34;;;;;;;29.60;14.70;;;;;;;-0.44;79.88;99872.28;5053474;28;20064;-55
2022/04/23 11:46:09;;;;;;;20.27;9.63;;;;;;;-0.41;80.17;99891.16;5052829;28;20102;-55
2022/04/23 11:48:47;;;;;;;12.75;5.82;;;;;;;-0.45;80.23;99885.97;5053116;28;20095;-54
2022/04/23 11:51:21;;;;;;;11.38;5.05;;;;;;;-0.51;80.49;99890.97;5053888;28;20053;-56
2022/04/23 11:54:00;;;;;;;12.07;5.70;;;;;;;-0.49;80.50;99889.28;5053813;28;20121;-56
2022/04/23 11:56:33;;;;;;;12.63;5.50;;;;;;;-0.43;80.72;99888.56;5053634;28;20056;-55
2022/04/23 11:59:09;;;;;;;10.98;4.22;;;;;;;-1.00;80.09;99787.25;5054922;28;20053;-57
2022/04/23 12:01:40;;;;;;;11.95;5.05;;;;;;;-0.43;80.23;99891.13;5054626;28;20064;-56
2022/04/23 12:04:13;;;;;;;10.27;4.10;;;;;;;-0.54;80.50;99885.75;5054643;28;20052;-56
2022/04/23 12:06:48;;;;;;;8.55;3.80;;;;;;;-0.57;80.75;99890.84;5054403;28;20057;-55
2022/04/23 12:09:18;;;;;;;16.20;6.35;;;;;;;-0.61;81.07;99883.88;5054619;28;20282;-55
2022/04/23 12:12:01;;;;;;;11.43;5.90;;;;;;;-0.61;81.04;99886.44;5053711;28;20067;-54
2022/04/23 12:14:31;;;;;;;9.52;3.63;;;;;;;-0.54;81.08;99890.91;5054134;28;20053;-53
2022/04/23 12:17:09;;;;;;;13.15;5.50;;;;;;;-0.56;80.86;99897.69;5053661;28;20049;-55
2022/04/23 12:19:39;;;;;;;11.15;4.80;;;;;;;-0.52;81.05;99908.91;5053378;28;20041;-54
2022/04/23 12:22:22;;;;;;;5.75;3.00;;;;;;;-0.47;80.53;99918.44;5053663;28;20083;-54
2022/04/23 12:24:53;;;;;;;16.30;8.57;;;;;;;-0.44;80.06;99918.50;5054091;28;20316;-53
2022/04/23 12:27:23;;;;;;;18.13;9.68;;;;;;;-0.45;80.32;99921.91;5054270;28;20064;-54
2022/04/23 12:41:15;;;;;;;16.63;6.50;;;;;;;-0.79;80.79;99914.28;5054254;28;20059;-55
2022/04/23 12:43:46;;;;;;;12.43;4.60;;;;;;;-0.65;81.08;99946.22;5054098;28;20055;-55
2022/04/23 12:46:17;;;;;;;6.30;3.60;;;;;;;-0.63;81.06;99962.53;5053811;28;20040;-53